sensor_id;sensor_type;location;lat;lon;timestamp;temperature;humidity
23475;DHT22;11910;52.086;21.066;2023-04-16T00:01:51;11.10;98.80
23475;DHT22;11910;52.086;21.066;2023-04-16T00:04:17;11.00;98.70
23475;DHT22;11910;52.086;21.066;2023-04-16T00:06:43;11.10;98.80
23475;DHT22;11910;52.086;21.066;2023-04-16T00:09:08;11.10;98.80
23475;DHT22;11910;52.086;21.066;2023-04-16T00:11:34;11.10;98.90
23475;DHT22;11910;52.086;21.066;2023-04-16T00:14:00;11.10;98.80
23475;DHT22;11910;52.086;21.066;2023-04-16T00:16:26;11.10;98.80
23475;DHT22;11910;52.086;21.066;2023-04-16T00:18:51;11.10;98.80
23475;DHT22;11910;52.086;21.066;2023-04-16T00:21:17;11.10;98.70
23475;DHT22;11910;52.086;21.066;2023-04-16T00:23:42;11.00;98.70
23475;DHT22;11910;52.086;21.066;2023-04-16T00:26:08;11.00;98.80
23475;DHT22;11910;52.086;21.066;2023-04-16T00:28:34;11.00;98.80
23475;DHT22;11910;52.086;21.066;2023-04-16T00:31:00;11.00;98.80
23475;DHT22;11910;52.086;21.066;2023-04-16T00:33:26;11.00;98.80
23475;DHT22;11910;52.086;21.066;2023-04-16T00:35:51;11.00;98.90
23475;DHT22;11910;52.086;21.066;2023-04-16T00:38:17;11.00;98.90
23475;DHT22;11910;52.086;21.066;2023-04-16T00:40:42;11.00;98.90
23475;DHT22;11910;52.086;21.066;2023-04-16T00:43:08;11.00;98.90
23475;DHT22;11910;52.086;21.066;2023-04-16T00:45:34;11.00;98.80
23475;DHT22;11910;52.086;21.066;2023-04-16T00:48:00;10.90;98.90
23475;DHT22;11910;52.086;21.066;2023-04-16T00:50:26;10.90;99.00
23475;DHT22;11910;52.086;21.066;2023-04-16T00:52:52;10.90;98.90
23475;DHT22;11910;52.086;21.066;2023-04-16T00:55:19;10.90;98.90
23475;DHT22;11910;52.086;21.066;2023-04-16T00:57:45;10.90;98.90
23475;DHT22;11910;52.086;21.066;2023-04-16T01:00:12;10.90;99.10
23475;DHT22;11910;52.086;21.066;2023-04-16T01:02:38;10.90;99.00
23475;DHT22;11910;52.086;21.066;2023-04-16T01:05:04;10.80;98.90
23475;DHT22;11910;52.086;21.066;2023-04-16T01:07:30;10.80;99.00
23475;DHT22;11910;52.086;21.066;2023-04-16T01:09:56;10.70;99.00
23475;DHT22;11910;52.086;21.066;2023-04-16T01:12:22;10.80;99.20
23475;DHT22;11910;52.086;21.066;2023-04-16T01:14:48;10.80;99.10
23475;DHT22;11910;52.086;21.066;2023-04-16T01:17:13;10.70;99.00
23475;DHT22;11910;52.086;21.066;2023-04-16T01:19:39;10.70;99.10
23475;DHT22;11910;52.086;21.066;2023-04-16T01:22:05;10.70;99.20
23475;DHT22;11910;52.086;21.066;2023-04-16T01:24:30;10.70;99.30
23475;DHT22;11910;52.086;21.066;2023-04-16T01:26:57;10.60;99.20
23475;DHT22;11910;52.086;21.066;2023-04-16T01:29:23;10.70;99.30
23475;DHT22;11910;52.086;21.066;2023-04-16T01:31:49;10.70;99.30
23475;DHT22;11910;52.086;21.066;2023-04-16T01:34:15;10.70;99.20
23475;DHT22;11910;52.086;21.066;2023-04-16T01:36:40;10.80;99.20
23475;DHT22;11910;52.086;21.066;2023-04-16T01:39:06;10.70;99.20
23475;DHT22;11910;52.086;21.066;2023-04-16T01:41:31;10.80;99.30
23475;DHT22;11910;52.086;21.066;2023-04-16T01:43:57;10.80;99.20
23475;DHT22;11910;52.086;21.066;2023-04-16T01:46:26;10.70;99.30
23475;DHT22;11910;52.086;21.066;2023-04-16T01:48:52;10.70;99.30
23475;DHT22;11910;52.086;21.066;2023-04-16T01:51:19;10.70;99.20
23475;DHT22;11910;52.086;21.066;2023-04-16T01:53:45;10.70;99.20
23475;DHT22;11910;52.086;21.066;2023-04-16T01:56:10;10.60;99.10
23475;DHT22;11910;52.086;21.066;2023-04-16T01:58:36;10.50;99.50
23475;DHT22;11910;52.086;21.066;2023-04-16T02:01:02;10.50;99.50
23475;DHT22;11910;52.086;21.066;2023-04-16T02:03:29;10.50;99.30
23475;DHT22;11910;52.086;21.066;2023-04-16T02:05:55;10.50;99.30
23475;DHT22;11910;52.086;21.066;2023-04-16T02:08:21;10.50;99.30
23475;DHT22;11910;52.086;21.066;2023-04-16T02:10:49;10.50;99.50
23475;DHT22;11910;52.086;21.066;2023-04-16T02:13:15;10.50;99.50
23475;DHT22;11910;52.086;21.066;2023-04-16T02:15:49;10.60;99.40
23475;DHT22;11910;52.086;21.066;2023-04-16T02:18:15;10.60;99.30
23475;DHT22;11910;52.086;21.066;2023-04-16T02:20:42;10.50;99.30
23475;DHT22;11910;52.086;21.066;2023-04-16T02:23:08;10.50;99.50
23475;DHT22;11910;52.086;21.066;2023-04-16T02:25:41;10.50;99.60
23475;DHT22;11910;52.086;21.066;2023-04-16T02:28:09;10.50;99.60
23475;DHT22;11910;52.086;21.066;2023-04-16T02:30:36;10.60;99.50
23475;DHT22;11910;52.086;21.066;2023-04-16T02:33:02;10.70;99.40
23475;DHT22;11910;52.086;21.066;2023-04-16T02:35:32;10.70;99.50
23475;DHT22;11910;52.086;21.066;2023-04-16T02:37:58;10.70;99.50
23475;DHT22;11910;52.086;21.066;2023-04-16T02:40:25;10.60;99.30
23475;DHT22;11910;52.086;21.066;2023-04-16T02:42:51;10.50;99.50
23475;DHT22;11910;52.086;21.066;2023-04-16T02:45:17;10.50;99.60
23475;DHT22;11910;52.086;21.066;2023-04-16T02:47:43;10.50;99.50
23475;DHT22;11910;52.086;21.066;2023-04-16T02:50:09;10.40;99.80
23475;DHT22;11910;52.086;21.066;2023-04-16T02:52:34;10.30;99.80
23475;DHT22;11910;52.086;21.066;2023-04-16T02:55:00;10.30;99.90
23475;DHT22;11910;52.086;21.066;2023-04-16T02:57:26;10.40;99.90
23475;DHT22;11910;52.086;21.066;2023-04-16T02:59:51;10.40;99.90
23475;DHT22;11910;52.086;21.066;2023-04-16T03:02:17;10.40;99.90
23475;DHT22;11910;52.086;21.066;2023-04-16T03:04:43;10.50;99.90
23475;DHT22;11910;52.086;21.066;2023-04-16T03:07:08;10.50;99.90
23475;DHT22;11910;52.086;21.066;2023-04-16T03:09:34;10.50;99.70
23475;DHT22;11910;52.086;21.066;2023-04-16T03:12:00;10.60;99.80
23475;DHT22;11910;52.086;21.066;2023-04-16T03:14:29;10.70;99.60
23475;DHT22;11910;52.086;21.066;2023-04-16T03:16:55;10.70;99.50
23475;DHT22;11910;52.086;21.066;2023-04-16T03:19:21;10.70;99.50
23475;DHT22;11910;52.086;21.066;2023-04-16T03:21:47;10.70;99.40
23475;DHT22;11910;52.086;21.066;2023-04-16T03:24:12;10.70;99.30
23475;DHT22;11910;52.086;21.066;2023-04-16T03:26:38;10.70;99.40
23475;DHT22;11910;52.086;21.066;2023-04-16T03:29:03;10.70;99.30
23475;DHT22;11910;52.086;21.066;2023-04-16T03:31:29;10.80;99.30
23475;DHT22;11910;52.086;21.066;2023-04-16T03:33:55;10.80;99.20
23475;DHT22;11910;52.086;21.066;2023-04-16T03:36:21;10.90;99.30
23475;DHT22;11910;52.086;21.066;2023-04-16T03:38:48;10.80;99.00
23475;DHT22;11910;52.086;21.066;2023-04-16T03:41:14;10.80;99.00
23475;DHT22;11910;52.086;21.066;2023-04-16T03:43:40;10.80;99.00
23475;DHT22;11910;52.086;21.066;2023-04-16T03:46:05;10.90;99.00
23475;DHT22;11910;52.086;21.066;2023-04-16T03:48:31;10.80;99.00
23475;DHT22;11910;52.086;21.066;2023-04-16T03:50:57;10.80;99.00
23475;DHT22;11910;52.086;21.066;2023-04-16T03:53:23;10.90;99.10
23475;DHT22;11910;52.086;21.066;2023-04-16T03:55:49;10.90;99.10
23475;DHT22;11910;52.086;21.066;2023-04-16T03:58:18;10.80;99.10
23475;DHT22;11910;52.086;21.066;2023-04-16T04:00:44;10.90;99.20
23475;DHT22;11910;52.086;21.066;2023-04-16T04:03:10;10.90;99.00
23475;DHT22;11910;52.086;21.066;2023-04-16T04:05:38;10.90;99.00
23475;DHT22;11910;52.086;21.066;2023-04-16T04:08:04;10.80;99.00
23475;DHT22;11910;52.086;21.066;2023-04-16T04:10:35;10.80;99.20
23475;DHT22;11910;52.086;21.066;2023-04-16T04:13:02;10.80;98.90
23475;DHT22;11910;52.086;21.066;2023-04-16T04:15:28;10.80;99.20
23475;DHT22;11910;52.086;21.066;2023-04-16T04:17:53;10.80;99.20
23475;DHT22;11910;52.086;21.066;2023-04-16T04:20:19;10.80;99.30
23475;DHT22;11910;52.086;21.066;2023-04-16T04:22:45;10.80;99.20
23475;DHT22;11910;52.086;21.066;2023-04-16T04:25:10;10.70;99.20
23475;DHT22;11910;52.086;21.066;2023-04-16T04:27:36;10.70;99.40
23475;DHT22;11910;52.086;21.066;2023-04-16T04:30:02;10.60;99.30
23475;DHT22;11910;52.086;21.066;2023-04-16T04:32:31;10.50;99.60
23475;DHT22;11910;52.086;21.066;2023-04-16T04:34:59;10.50;99.70
23475;DHT22;11910;52.086;21.066;2023-04-16T04:37:28;10.40;99.90
23475;DHT22;11910;52.086;21.066;2023-04-16T04:39:53;10.40;99.80
23475;DHT22;11910;52.086;21.066;2023-04-16T04:42:20;10.40;99.90
23475;DHT22;11910;52.086;21.066;2023-04-16T04:44:46;10.40;99.90
23475;DHT22;11910;52.086;21.066;2023-04-16T04:47:13;10.30;99.90
23475;DHT22;11910;52.086;21.066;2023-04-16T04:49:39;10.20;99.90
23475;DHT22;11910;52.086;21.066;2023-04-16T04:52:05;10.20;99.90
23475;DHT22;11910;52.086;21.066;2023-04-16T04:54:31;10.30;99.90
23475;DHT22;11910;52.086;21.066;2023-04-16T04:56:57;10.30;99.90
23475;DHT22;11910;52.086;21.066;2023-04-16T04:59:23;10.50;99.90
23475;DHT22;11910;52.086;21.066;2023-04-16T05:01:49;10.60;99.90
23475;DHT22;11910;52.086;21.066;2023-04-16T05:04:15;10.60;99.80
23475;DHT22;11910;52.086;21.066;2023-04-16T05:06:41;10.60;99.70
23475;DHT22;11910;52.086;21.066;2023-04-16T05:09:07;10.60;99.50
23475;DHT22;11910;52.086;21.066;2023-04-16T05:11:37;10.60;99.80
23475;DHT22;11910;52.086;21.066;2023-04-16T05:14:02;10.60;99.50
23475;DHT22;11910;52.086;21.066;2023-04-16T05:16:28;10.80;99.70
23475;DHT22;11910;52.086;21.066;2023-04-16T05:18:54;10.80;99.50
23475;DHT22;11910;52.086;21.066;2023-04-16T05:21:20;10.70;99.30
23475;DHT22;11910;52.086;21.066;2023-04-16T05:23:46;10.70;99.40
23475;DHT22;11910;52.086;21.066;2023-04-16T05:26:12;10.70;99.30
23475;DHT22;11910;52.086;21.066;2023-04-16T05:28:37;10.80;99.20
23475;DHT22;11910;52.086;21.066;2023-04-16T05:31:03;10.80;99.30
23475;DHT22;11910;52.086;21.066;2023-04-16T05:33:28;10.80;99.00
23475;DHT22;11910;52.086;21.066;2023-04-16T05:35:54;10.80;98.50
23475;DHT22;11910;52.086;21.066;2023-04-16T05:38:19;10.80;98.70
23475;DHT22;11910;52.086;21.066;2023-04-16T05:40:45;10.70;98.50
23475;DHT22;11910;52.086;21.066;2023-04-16T05:43:10;10.70;98.60
23475;DHT22;11910;52.086;21.066;2023-04-16T05:45:36;10.70;99.00
23475;DHT22;11910;52.086;21.066;2023-04-16T05:48:08;10.70;99.00
23475;DHT22;11910;52.086;21.066;2023-04-16T05:50:35;10.70;98.40
23475;DHT22;11910;52.086;21.066;2023-04-16T05:53:05;10.70;98.70
23475;DHT22;11910;52.086;21.066;2023-04-16T05:55:31;10.80;98.80
23475;DHT22;11910;52.086;21.066;2023-04-16T05:57:57;10.80;98.30
23475;DHT22;11910;52.086;21.066;2023-04-16T06:00:23;10.90;98.50
23475;DHT22;11910;52.086;21.066;2023-04-16T06:02:49;10.90;98.30
23475;DHT22;11910;52.086;21.066;2023-04-16T06:05:15;10.90;98.20
23475;DHT22;11910;52.086;21.066;2023-04-16T06:07:42;11.00;98.00
23475;DHT22;11910;52.086;21.066;2023-04-16T06:10:07;11.00;98.10
23475;DHT22;11910;52.086;21.066;2023-04-16T06:12:33;11.00;98.30
23475;DHT22;11910;52.086;21.066;2023-04-16T06:15:00;11.10;97.60
23475;DHT22;11910;52.086;21.066;2023-04-16T06:17:25;11.10;97.60
23475;DHT22;11910;52.086;21.066;2023-04-16T06:19:51;11.10;97.10
23475;DHT22;11910;52.086;21.066;2023-04-16T06:22:17;11.10;97.30
23475;DHT22;11910;52.086;21.066;2023-04-16T06:24:43;11.20;97.60
23475;DHT22;11910;52.086;21.066;2023-04-16T06:27:08;11.20;97.60
23475;DHT22;11910;52.086;21.066;2023-04-16T06:29:34;11.10;97.50
23475;DHT22;11910;52.086;21.066;2023-04-16T06:32:00;11.20;97.40
23475;DHT22;11910;52.086;21.066;2023-04-16T06:34:27;11.30;97.20
23475;DHT22;11910;52.086;21.066;2023-04-16T06:36:53;11.30;97.00
23475;DHT22;11910;52.086;21.066;2023-04-16T06:39:18;11.30;97.10
23475;DHT22;11910;52.086;21.066;2023-04-16T06:41:46;11.30;97.10
23475;DHT22;11910;52.086;21.066;2023-04-16T06:44:12;11.50;96.90
23475;DHT22;11910;52.086;21.066;2023-04-16T06:46:38;11.50;96.70
23475;DHT22;11910;52.086;21.066;2023-04-16T06:49:03;11.50;96.30
23475;DHT22;11910;52.086;21.066;2023-04-16T06:51:30;11.50;96.20
23475;DHT22;11910;52.086;21.066;2023-04-16T06:53:55;11.50;96.80
23475;DHT22;11910;52.086;21.066;2023-04-16T06:56:21;11.60;96.70
23475;DHT22;11910;52.086;21.066;2023-04-16T06:58:47;11.70;96.30
23475;DHT22;11910;52.086;21.066;2023-04-16T07:01:12;11.70;95.60
23475;DHT22;11910;52.086;21.066;2023-04-16T07:03:38;11.80;96.00
23475;DHT22;11910;52.086;21.066;2023-04-16T07:06:04;11.90;96.20
23475;DHT22;11910;52.086;21.066;2023-04-16T07:08:30;11.90;96.00
23475;DHT22;11910;52.086;21.066;2023-04-16T07:10:55;12.00;96.00
23475;DHT22;11910;52.086;21.066;2023-04-16T07:13:21;12.00;95.50
23475;DHT22;11910;52.086;21.066;2023-04-16T07:15:47;12.10;95.40
23475;DHT22;11910;52.086;21.066;2023-04-16T07:18:12;12.10;95.60
23475;DHT22;11910;52.086;21.066;2023-04-16T07:20:47;12.20;95.40
23475;DHT22;11910;52.086;21.066;2023-04-16T07:23:12;12.20;95.30
23475;DHT22;11910;52.086;21.066;2023-04-16T07:25:38;12.30;95.40
23475;DHT22;11910;52.086;21.066;2023-04-16T07:28:04;12.30;95.40
23475;DHT22;11910;52.086;21.066;2023-04-16T07:30:32;12.40;95.10
23475;DHT22;11910;52.086;21.066;2023-04-16T07:33:02;12.40;95.20
23475;DHT22;11910;52.086;21.066;2023-04-16T07:35:29;12.50;95.00
23475;DHT22;11910;52.086;21.066;2023-04-16T07:37:55;12.40;94.90
23475;DHT22;11910;52.086;21.066;2023-04-16T07:40:21;12.40;95.00
23475;DHT22;11910;52.086;21.066;2023-04-16T07:42:47;12.40;95.30
23475;DHT22;11910;52.086;21.066;2023-04-16T07:45:13;12.50;95.20
23475;DHT22;11910;52.086;21.066;2023-04-16T07:47:38;12.50;94.40
23475;DHT22;11910;52.086;21.066;2023-04-16T07:50:05;12.30;94.40
23475;DHT22;11910;52.086;21.066;2023-04-16T07:52:31;12.10;94.70
23475;DHT22;11910;52.086;21.066;2023-04-16T07:54:57;12.00;94.60
23475;DHT22;11910;52.086;21.066;2023-04-16T07:57:23;11.80;94.90
23475;DHT22;11910;52.086;21.066;2023-04-16T07:59:48;11.80;95.30
23475;DHT22;11910;52.086;21.066;2023-04-16T08:02:14;11.80;95.10
23475;DHT22;11910;52.086;21.066;2023-04-16T08:04:41;11.70;95.60
23475;DHT22;11910;52.086;21.066;2023-04-16T08:07:07;11.70;95.50
23475;DHT22;11910;52.086;21.066;2023-04-16T08:09:33;11.80;95.30
23475;DHT22;11910;52.086;21.066;2023-04-16T08:12:00;11.90;95.60
23475;DHT22;11910;52.086;21.066;2023-04-16T08:14:27;11.90;95.20
23475;DHT22;11910;52.086;21.066;2023-04-16T08:16:52;11.90;94.90
23475;DHT22;11910;52.086;21.066;2023-04-16T08:19:18;11.90;94.90
23475;DHT22;11910;52.086;21.066;2023-04-16T08:21:44;11.80;94.90
23475;DHT22;11910;52.086;21.066;2023-04-16T08:24:10;11.70;94.80
23475;DHT22;11910;52.086;21.066;2023-04-16T08:26:36;11.80;95.40
23475;DHT22;11910;52.086;21.066;2023-04-16T08:29:01;11.90;95.70
23475;DHT22;11910;52.086;21.066;2023-04-16T08:31:27;12.10;95.40
23475;DHT22;11910;52.086;21.066;2023-04-16T08:33:53;12.10;95.30
23475;DHT22;11910;52.086;21.066;2023-04-16T08:36:21;12.20;95.20
23475;DHT22;11910;52.086;21.066;2023-04-16T08:38:47;12.30;95.20
23475;DHT22;11910;52.086;21.066;2023-04-16T08:41:12;12.40;94.90
23475;DHT22;11910;52.086;21.066;2023-04-16T08:43:43;12.50;94.90
23475;DHT22;11910;52.086;21.066;2023-04-16T08:46:11;12.50;95.10
23475;DHT22;11910;52.086;21.066;2023-04-16T08:48:37;12.40;94.40
23475;DHT22;11910;52.086;21.066;2023-04-16T08:51:09;12.50;94.90
23475;DHT22;11910;52.086;21.066;2023-04-16T08:54:02;12.60;94.50
23475;DHT22;11910;52.086;21.066;2023-04-16T08:56:27;12.50;93.60
23475;DHT22;11910;52.086;21.066;2023-04-16T08:58:53;12.40;93.50
23475;DHT22;11910;52.086;21.066;2023-04-16T09:01:19;12.40;93.50
23475;DHT22;11910;52.086;21.066;2023-04-16T09:03:48;12.30;93.60
23475;DHT22;11910;52.086;21.066;2023-04-16T09:06:15;12.40;93.80
23475;DHT22;11910;52.086;21.066;2023-04-16T09:08:43;12.40;93.90
23475;DHT22;11910;52.086;21.066;2023-04-16T09:11:09;12.50;93.90
23475;DHT22;11910;52.086;21.066;2023-04-16T09:13:36;12.70;93.80
23475;DHT22;11910;52.086;21.066;2023-04-16T09:16:02;12.80;93.60
23475;DHT22;11910;52.086;21.066;2023-04-16T09:18:29;12.90;93.70
23475;DHT22;11910;52.086;21.066;2023-04-16T09:20:55;13.10;93.40
23475;DHT22;11910;52.086;21.066;2023-04-16T09:23:21;13.20;93.60
23475;DHT22;11910;52.086;21.066;2023-04-16T09:25:47;13.30;93.30
23475;DHT22;11910;52.086;21.066;2023-04-16T09:28:42;13.40;92.80
23475;DHT22;11910;52.086;21.066;2023-04-16T09:31:15;13.50;92.40
23475;DHT22;11910;52.086;21.066;2023-04-16T09:33:43;13.50;92.40
23475;DHT22;11910;52.086;21.066;2023-04-16T09:36:09;13.40;92.00
23475;DHT22;11910;52.086;21.066;2023-04-16T09:38:48;13.40;92.30
23475;DHT22;11910;52.086;21.066;2023-04-16T09:41:14;13.60;92.20
23475;DHT22;11910;52.086;21.066;2023-04-16T09:43:54;13.70;92.20
23475;DHT22;11910;52.086;21.066;2023-04-16T09:46:30;14.00;92.50
23475;DHT22;11910;52.086;21.066;2023-04-16T09:49:14;14.20;92.10
23475;DHT22;11910;52.086;21.066;2023-04-16T09:51:41;14.40;90.40
23475;DHT22;11910;52.086;21.066;2023-04-16T09:54:07;14.30;91.40
23475;DHT22;11910;52.086;21.066;2023-04-16T09:56:32;14.40;90.80
23475;DHT22;11910;52.086;21.066;2023-04-16T09:59:01;14.40;90.30
23475;DHT22;11910;52.086;21.066;2023-04-16T10:01:29;14.30;90.40
23475;DHT22;11910;52.086;21.066;2023-04-16T10:03:55;14.40;90.60
23475;DHT22;11910;52.086;21.066;2023-04-16T10:06:22;14.30;91.00
23475;DHT22;11910;52.086;21.066;2023-04-16T10:08:51;14.40;91.00
23475;DHT22;11910;52.086;21.066;2023-04-16T10:11:18;14.50;91.00
23475;DHT22;11910;52.086;21.066;2023-04-16T10:13:43;14.30;90.20
23475;DHT22;11910;52.086;21.066;2023-04-16T10:16:12;14.20;89.80
23475;DHT22;11910;52.086;21.066;2023-04-16T10:18:40;14.10;90.30
23475;DHT22;11910;52.086;21.066;2023-04-16T10:21:06;14.10;90.30
23475;DHT22;11910;52.086;21.066;2023-04-16T10:23:32;14.20;90.90
23475;DHT22;11910;52.086;21.066;2023-04-16T10:26:00;14.30;90.70
23475;DHT22;11910;52.086;21.066;2023-04-16T10:28:26;14.20;90.20
23475;DHT22;11910;52.086;21.066;2023-04-16T10:30:54;14.20;90.90
23475;DHT22;11910;52.086;21.066;2023-04-16T10:33:28;14.10;90.30
23475;DHT22;11910;52.086;21.066;2023-04-16T10:36:11;14.10;90.20
23475;DHT22;11910;52.086;21.066;2023-04-16T10:38:39;14.20;89.70
23475;DHT22;11910;52.086;21.066;2023-04-16T10:41:06;14.20;90.50
23475;DHT22;11910;52.086;21.066;2023-04-16T10:43:47;14.20;90.20
23475;DHT22;11910;52.086;21.066;2023-04-16T10:48:42;14.50;91.00
23475;DHT22;11910;52.086;21.066;2023-04-16T10:51:43;14.50;90.50
23475;DHT22;11910;52.086;21.066;2023-04-16T10:56:34;14.70;90.40
23475;DHT22;11910;52.086;21.066;2023-04-16T10:59:03;14.80;89.00
23475;DHT22;11910;52.086;21.066;2023-04-16T11:01:35;14.80;88.20
23475;DHT22;11910;52.086;21.066;2023-04-16T11:12:14;14.80;87.50
23475;DHT22;11910;52.086;21.066;2023-04-16T11:14:40;14.90;87.70
23475;DHT22;11910;52.086;21.066;2023-04-16T11:17:06;14.90;86.80
23475;DHT22;11910;52.086;21.066;2023-04-16T11:19:34;14.90;86.80
23475;DHT22;11910;52.086;21.066;2023-04-16T11:22:01;15.00;86.70
23475;DHT22;11910;52.086;21.066;2023-04-16T11:24:33;15.10;86.30
23475;DHT22;11910;52.086;21.066;2023-04-16T11:26:59;15.00;85.50
23475;DHT22;11910;52.086;21.066;2023-04-16T11:29:25;15.00;85.20
23475;DHT22;11910;52.086;21.066;2023-04-16T11:31:52;15.20;85.10
23475;DHT22;11910;52.086;21.066;2023-04-16T11:34:18;15.30;86.70
23475;DHT22;11910;52.086;21.066;2023-04-16T11:36:48;15.50;86.70
23475;DHT22;11910;52.086;21.066;2023-04-16T11:39:14;15.70;87.20
23475;DHT22;11910;52.086;21.066;2023-04-16T11:41:50;16.00;87.10
23475;DHT22;11910;52.086;21.066;2023-04-16T11:46:42;16.80;86.70
23475;DHT22;11910;52.086;21.066;2023-04-16T11:49:08;17.10;83.90
23475;DHT22;11910;52.086;21.066;2023-04-16T11:51:42;17.30;80.90
23475;DHT22;11910;52.086;21.066;2023-04-16T11:54:08;17.40;80.30
23475;DHT22;11910;52.086;21.066;2023-04-16T11:56:35;17.50;81.40
23475;DHT22;11910;52.086;21.066;2023-04-16T11:59:12;17.50;82.70
23475;DHT22;11910;52.086;21.066;2023-04-16T12:01:39;17.60;81.70
23475;DHT22;11910;52.086;21.066;2023-04-16T12:04:05;17.50;80.10
23475;DHT22;11910;52.086;21.066;2023-04-16T12:06:31;17.50;83.20
23475;DHT22;11910;52.086;21.066;2023-04-16T12:08:57;17.40;82.40
23475;DHT22;11910;52.086;21.066;2023-04-16T12:11:41;17.40;83.30
23475;DHT22;11910;52.086;21.066;2023-04-16T12:16:33;17.30;83.00
23475;DHT22;11910;52.086;21.066;2023-04-16T12:19:00;17.20;81.30
23475;DHT22;11910;52.086;21.066;2023-04-16T12:24:06;17.00;82.60
23475;DHT22;11910;52.086;21.066;2023-04-16T12:26:55;17.00;82.10
23475;DHT22;11910;52.086;21.066;2023-04-16T12:29:24;17.00;80.50
23475;DHT22;11910;52.086;21.066;2023-04-16T12:31:51;16.90;81.30
23475;DHT22;11910;52.086;21.066;2023-04-16T12:34:17;16.80;81.10
23475;DHT22;11910;52.086;21.066;2023-04-16T12:36:44;16.70;79.60
23475;DHT22;11910;52.086;21.066;2023-04-16T12:39:11;16.60;80.80
23475;DHT22;11910;52.086;21.066;2023-04-16T12:41:38;16.60;79.70
23475;DHT22;11910;52.086;21.066;2023-04-16T12:44:05;16.60;79.00
23475;DHT22;11910;52.086;21.066;2023-04-16T12:46:34;16.60;81.00
23475;DHT22;11910;52.086;21.066;2023-04-16T12:49:00;16.60;79.80
23475;DHT22;11910;52.086;21.066;2023-04-16T12:51:26;16.70;78.80
23475;DHT22;11910;52.086;21.066;2023-04-16T12:53:51;16.70;78.10
23475;DHT22;11910;52.086;21.066;2023-04-16T12:56:17;16.70;79.30
23475;DHT22;11910;52.086;21.066;2023-04-16T12:58:43;16.90;78.20
23475;DHT22;11910;52.086;21.066;2023-04-16T13:01:08;17.00;79.40
23475;DHT22;11910;52.086;21.066;2023-04-16T13:03:34;17.30;77.00
23475;DHT22;11910;52.086;21.066;2023-04-16T13:06:01;17.50;75.90
23475;DHT22;11910;52.086;21.066;2023-04-16T13:08:27;17.70;79.20
23475;DHT22;11910;52.086;21.066;2023-04-16T13:10:53;17.90;77.70
23475;DHT22;11910;52.086;21.066;2023-04-16T13:13:19;17.90;77.40
23475;DHT22;11910;52.086;21.066;2023-04-16T13:15:45;18.00;76.20
23475;DHT22;11910;52.086;21.066;2023-04-16T13:18:10;18.00;76.80
23475;DHT22;11910;52.086;21.066;2023-04-16T13:20:36;18.10;78.10
23475;DHT22;11910;52.086;21.066;2023-04-16T13:23:02;18.30;76.40
23475;DHT22;11910;52.086;21.066;2023-04-16T13:25:30;18.40;75.20
23475;DHT22;11910;52.086;21.066;2023-04-16T13:27:55;18.50;74.00
23475;DHT22;11910;52.086;21.066;2023-04-16T13:30:21;18.40;73.90
23475;DHT22;11910;52.086;21.066;2023-04-16T13:32:47;18.40;73.90
23475;DHT22;11910;52.086;21.066;2023-04-16T13:35:13;18.30;73.00
23475;DHT22;11910;52.086;21.066;2023-04-16T13:37:38;18.20;75.50
23475;DHT22;11910;52.086;21.066;2023-04-16T13:40:05;18.20;74.80
23475;DHT22;11910;52.086;21.066;2023-04-16T13:42:31;18.10;75.90
23475;DHT22;11910;52.086;21.066;2023-04-16T13:44:56;17.90;73.30
23475;DHT22;11910;52.086;21.066;2023-04-16T13:47:23;17.80;72.40
23475;DHT22;11910;52.086;21.066;2023-04-16T13:49:51;17.70;75.80
23475;DHT22;11910;52.086;21.066;2023-04-16T13:52:17;17.70;77.00
23475;DHT22;11910;52.086;21.066;2023-04-16T13:54:43;17.60;77.20
23475;DHT22;11910;52.086;21.066;2023-04-16T13:57:08;17.80;77.40
23475;DHT22;11910;52.086;21.066;2023-04-16T13:59:34;17.90;77.80
23475;DHT22;11910;52.086;21.066;2023-04-16T14:02:00;17.90;76.60
23475;DHT22;11910;52.086;21.066;2023-04-16T14:04:25;18.00;76.80
23475;DHT22;11910;52.086;21.066;2023-04-16T14:06:51;18.20;75.90
23475;DHT22;11910;52.086;21.066;2023-04-16T14:09:17;18.50;75.80
23475;DHT22;11910;52.086;21.066;2023-04-16T14:11:42;19.00;71.80
23475;DHT22;11910;52.086;21.066;2023-04-16T14:14:08;19.50;70.10
23475;DHT22;11910;52.086;21.066;2023-04-16T14:16:33;20.00;67.70
23475;DHT22;11910;52.086;21.066;2023-04-16T14:18:59;20.30;67.00
23475;DHT22;11910;52.086;21.066;2023-04-16T14:21:25;20.30;67.10
23475;DHT22;11910;52.086;21.066;2023-04-16T14:23:51;20.40;65.90
23475;DHT22;11910;52.086;21.066;2023-04-16T14:26:17;20.50;64.70
23475;DHT22;11910;52.086;21.066;2023-04-16T14:28:43;20.60;63.20
23475;DHT22;11910;52.086;21.066;2023-04-16T14:31:08;20.70;62.80
23475;DHT22;11910;52.086;21.066;2023-04-16T14:33:34;20.60;62.00
23475;DHT22;11910;52.086;21.066;2023-04-16T14:36:01;20.60;61.10
23475;DHT22;11910;52.086;21.066;2023-04-16T14:38:29;20.70;61.80
23475;DHT22;11910;52.086;21.066;2023-04-16T14:40:55;20.90;62.00
23475;DHT22;11910;52.086;21.066;2023-04-16T14:43:21;21.10;62.00
23475;DHT22;11910;52.086;21.066;2023-04-16T14:45:46;21.40;62.70
23475;DHT22;11910;52.086;21.066;2023-04-16T14:48:12;21.30;61.20
23475;DHT22;11910;52.086;21.066;2023-04-16T14:50:38;21.10;59.70
23475;DHT22;11910;52.086;21.066;2023-04-16T14:53:08;21.20;60.90
23475;DHT22;11910;52.086;21.066;2023-04-16T14:55:34;21.30;63.30
23475;DHT22;11910;52.086;21.066;2023-04-16T14:57:59;21.30;61.80
23475;DHT22;11910;52.086;21.066;2023-04-16T15:00:25;21.10;62.90
23475;DHT22;11910;52.086;21.066;2023-04-16T15:02:52;20.90;63.60
23475;DHT22;11910;52.086;21.066;2023-04-16T15:05:18;20.70;62.00
23475;DHT22;11910;52.086;21.066;2023-04-16T15:07:44;20.50;61.40
23475;DHT22;11910;52.086;21.066;2023-04-16T15:10:09;20.10;65.80
23475;DHT22;11910;52.086;21.066;2023-04-16T15:12:37;19.80;67.30
23475;DHT22;11910;52.086;21.066;2023-04-16T15:15:04;19.70;67.40
23475;DHT22;11910;52.086;21.066;2023-04-16T15:17:30;19.70;67.90
23475;DHT22;11910;52.086;21.066;2023-04-16T15:19:56;19.60;67.60
23475;DHT22;11910;52.086;21.066;2023-04-16T15:22:21;19.70;67.00
23475;DHT22;11910;52.086;21.066;2023-04-16T15:24:47;19.70;67.60
23475;DHT22;11910;52.086;21.066;2023-04-16T15:27:14;19.80;68.10
23475;DHT22;11910;52.086;21.066;2023-04-16T15:29:39;19.70;67.00
23475;DHT22;11910;52.086;21.066;2023-04-16T15:32:05;19.60;66.60
23475;DHT22;11910;52.086;21.066;2023-04-16T15:34:31;19.50;68.00